Time,TemperatureF,DewpointF,PressureIn,WindDirection,WindDirectionDegrees,WindSpeedMPH,WindSpeedGustMPH,Humidity,HourlyPrecipIn,Conditions,Clouds,dailyrainin,SolarRadiationWatts/m^2,SoftwareType,DateUTC
2013-11-13 00:00:00,27.1,21.5,30.47,NW,315,3.0,11.0,79,0.00,,---,0.00,0.00,VWS V14.01,2013-11-13 05:00:00,
2013-11-13 00:25:00,27.2,18.4,30.47,NW,305,7.0,14.0,69,0.00,,---,0.00,0.00,VWS V14.01,2013-11-13 05:25:00,
2013-11-13 00:30:00,27.2,18.4,30.47,NW,305,7.0,14.0,69,0.00,,---,0.00,0.00,VWS V14.01,2013-11-13 05:30:00,
2013-11-13 00:55:00,27.0,17.9,30.47,NNW,338,5.0,13.0,68,0.00,,---,0.00,0.00,VWS V14.01,2013-11-13 05:55:00,
2013-11-13 01:00:00,27.0,17.9,30.47,NNW,338,5.0,13.0,68,0.00,,---,0.00,0.00,VWS V14.01,2013-11-13 06:00:00,
2013-11-13 01:25:00,26.3,16.9,30.48,WNW,287,8.0,14.0,67,0.00,,---,0.00,0.00,VWS V14.01,2013-11-13 06:25:00,
2013-11-13 01:30:00,26.3,16.9,30.48,WNW,287,8.0,14.0,67,0.00,,---,0.00,0.00,VWS V14.01,2013-11-13 06:30:00,
2013-11-13 01:55:00,26.3,17.2,30.48,NW,308,9.0,16.0,68,0.00,,---,0.00,0.00,VWS V14.01,2013-11-13 06:55:00,
2013-11-13 02:00:00,26.3,17.2,30.48,NW,308,9.0,16.0,68,0.00,,---,0.00,0.00,VWS V14.01,2013-11-13 07:00:00,
2013-11-13 02:25:00,26.1,17.0,30.49,WSW,240,11.0,13.0,68,0.00,,---,0.00,0.00,VWS V14.01,2013-11-13 07:25:00,
2013-11-13 02:30:00,26.1,17.0,30.49,WSW,240,11.0,13.0,68,0.00,,---,0.00,0.00,VWS V14.01,2013-11-13 07:30:00,
2013-11-13 02:55:00,25.6,15.8,30.49,NW,322,7.0,14.0,66,0.00,,---,0.00,0.00,VWS V14.01,2013-11-13 07:55:00,
2013-11-13 03:00:00,25.6,15.8,30.49,NW,322,7.0,14.0,66,0.00,,---,0.00,0.00,VWS V14.01,2013-11-13 08:00:00,
2013-11-13 03:25:00,25.4,16.0,30.49,NW,309,3.0,12.0,67,0.00,,---,0.00,0.00,VWS V14.01,2013-11-13 08:25:00,
2013-11-13 03:30:00,25.4,16.0,30.49,NW,309,3.0,12.0,67,0.00,,---,0.00,0.00,VWS V14.01,2013-11-13 08:30:00,
2013-11-13 03:55:00,25.7,16.3,30.49,NW,323,3.0,8.0,67,0.00,,---,0.00,0.00,VWS V14.01,2013-11-13 08:55:00,
2013-11-13 04:00:00,25.7,16.3,30.49,NW,323,3.0,8.0,67,0.00,,---,0.00,0.00,VWS V14.01,2013-11-13 09:00:00,
2013-11-13 04:25:00,25.1,16.7,30.50,West,276,6.0,9.0,70,0.00,,---,0.00,0.00,VWS V14.01,2013-11-13 09:25:00,
2013-11-13 04:30:00,25.1,16.7,30.50,West,276,6.0,9.0,70,0.00,,---,0.00,0.00,VWS V14.01,2013-11-13 09:30:00,
2013-11-13 04:55:00,24.7,16.0,30.51,WSW,250,4.0,8.0,69,0.00,,---,0.00,0.00,VWS V14.01,2013-11-13 09:55:00,
2013-11-13 05:00:00,24.7,16.0,30.51,WSW,250,4.0,8.0,69,0.00,,---,0.00,0.00,VWS V14.01,2013-11-13 10:00:00,
2013-11-13 05:25:00,24.5,16.1,30.51,WSW,249,5.0,10.0,70,0.00,,---,0.00,0.00,VWS V14.01,2013-11-13 10:25:00,
2013-11-13 05:30:00,24.5,16.1,30.51,WSW,249,5.0,10.0,70,0.00,,---,0.00,0.00,VWS V14.01,2013-11-13 10:30:00,
2013-11-13 05:55:00,24.1,16.1,30.51,West,262,4.0,9.0,71,0.00,,---,0.00,0.00,VWS V14.01,2013-11-13 10:55:00,
2013-11-13 06:00:00,24.1,16.1,30.51,West,262,4.0,9.0,71,0.00,,---,0.00,0.00,VWS V14.01,2013-11-13 11:00:00,
2013-11-13 06:25:00,23.3,15.3,30.51,West,259,3.0,8.0,71,0.00,,---,0.00,0.00,VWS V14.01,2013-11-13 11:25:00,
2013-11-13 06:30:00,23.3,15.3,30.51,West,259,3.0,8.0,71,0.00,,---,0.00,0.00,VWS V14.01,2013-11-13 11:30:00,
2013-11-13 06:55:00,22.6,15.3,30.52,WSW,257,2.0,6.0,73,0.00,,---,0.00,0.00,VWS V14.01,2013-11-13 11:55:00,
2013-11-13 07:00:00,22.6,15.3,30.52,WSW,257,2.0,6.0,73,0.00,,---,0.00,0.00,VWS V14.01,2013-11-13 12:00:00,
2013-11-13 07:25:00,22.0,15.3,30.52,WSW,238,2.0,6.0,75,0.00,,---,0.00,14.00,VWS V14.01,2013-11-13 12:25:00,
2013-11-13 07:30:00,22.0,15.3,30.52,WSW,238,2.0,6.0,75,0.00,,---,0.00,14.00,VWS V14.01,2013-11-13 12:30:00,
2013-11-13 07:55:00,23.1,17.0,30.53,SW,218,4.0,8.0,77,0.00,,---,0.00,76.00,VWS V14.01,2013-11-13 12:55:00,
2013-11-13 08:00:00,23.1,17.0,30.53,SW,218,4.0,8.0,77,0.00,,---,0.00,76.00,VWS V14.01,2013-11-13 13:00:00,
2013-11-13 08:25:00,25.1,18.3,30.53,SW,226,5.0,8.0,75,0.00,,---,0.00,156.00,VWS V14.01,2013-11-13 13:25:00,
2013-11-13 08:30:00,25.1,18.3,30.53,SW,226,5.0,8.0,75,0.00,,---,0.00,156.00,VWS V14.01,2013-11-13 13:30:00,
2013-11-13 08:55:00,26.7,18.9,30.53,SW,224,4.0,10.0,72,0.00,,---,0.00,230.00,VWS V14.01,2013-11-13 13:55:00,
2013-11-13 09:00:00,26.7,18.9,30.53,SW,224,4.0,10.0,72,0.00,,---,0.00,230.00,VWS V14.01,2013-11-13 14:00:00,
2013-11-13 09:25:00,28.2,20.4,30.54,WSW,252,7.0,10.0,72,0.00,,---,0.00,292.00,VWS V14.01,2013-11-13 14:25:00,
2013-11-13 09:30:00,28.2,20.4,30.54,WSW,252,7.0,10.0,72,0.00,,---,0.00,292.00,VWS V14.01,2013-11-13 14:30:00,
2013-11-13 09:55:00,29.3,21.1,30.53,WSW,249,3.0,14.0,71,0.00,,---,0.00,207.00,VWS V14.01,2013-11-13 14:55:00,
2013-11-13 10:00:00,29.3,21.1,30.53,WSW,249,3.0,14.0,71,0.00,,---,0.00,207.00,VWS V14.01,2013-11-13 15:00:00,
2013-11-13 10:25:00,30.0,21.4,30.52,SSW,202,6.0,12.0,70,0.00,,---,0.00,257.00,VWS V14.01,2013-11-13 15:25:00,
2013-11-13 10:30:00,30.0,21.4,30.52,SSW,202,6.0,12.0,70,0.00,,---,0.00,257.00,VWS V14.01,2013-11-13 15:30:00,
2013-11-13 10:55:00,31.3,21.6,30.51,WSW,251,10.0,12.0,67,0.01,,---,0.01,278.00,VWS V14.01,2013-11-13 15:55:00,
2013-11-13 11:00:00,31.3,21.6,30.51,WSW,251,10.0,12.0,67,0.01,,---,0.01,278.00,VWS V14.01,2013-11-13 16:00:00,
2013-11-13 11:25:00,31.9,22.2,30.49,WSW,252,6.0,13.0,67,0.01,,---,0.01,244.00,VWS V14.01,2013-11-13 16:25:00,
2013-11-13 11:30:00,31.9,22.2,30.49,WSW,252,6.0,13.0,67,0.01,,---,0.01,244.00,VWS V14.01,2013-11-13 16:30:00,
2013-11-13 11:55:00,34.4,24.6,30.48,SW,230,7.0,13.0,67,0.01,,---,0.01,450.00,VWS V14.01,2013-11-13 16:55:00,
2013-11-13 12:00:00,34.4,24.6,30.48,SW,230,7.0,13.0,67,0.01,,---,0.01,450.00,VWS V14.01,2013-11-13 17:00:00,
2013-11-13 12:25:00,35.1,23.0,30.46,West,261,8.0,14.0,61,0.00,,---,0.01,591.00,VWS V14.01,2013-11-13 17:25:00,
2013-11-13 12:30:00,35.1,23.0,30.46,West,261,8.0,14.0,61,0.00,,---,0.01,591.00,VWS V14.01,2013-11-13 17:30:00,
2013-11-13 12:55:00,34.4,22.7,30.45,SW,216,7.0,18.0,62,0.00,,---,0.01,151.00,VWS V14.01,2013-11-13 17:55:00,
2013-11-13 13:00:00,34.4,22.7,30.45,SW,216,7.0,18.0,62,0.00,,---,0.01,151.00,VWS V14.01,2013-11-13 18:00:00,
2013-11-13 13:25:00,35.2,23.1,30.43,SW,222,8.0,18.0,61,0.00,,---,0.01,490.00,VWS V14.01,2013-11-13 18:25:00,
2013-11-13 13:30:00,35.2,23.1,30.43,SW,222,8.0,20.0,61,0.00,,---,0.01,490.00,VWS V14.01,2013-11-13 18:30:00,
2013-11-13 13:55:00,36.0,23.5,30.42,WSW,250,6.0,20.0,60,0.01,,---,0.02,378.00,VWS V14.01,2013-11-13 18:55:00,
2013-11-13 14:00:00,36.0,23.5,30.42,WSW,250,6.0,20.0,60,0.01,,---,0.02,378.00,VWS V14.01,2013-11-13 19:00:00,
2013-11-13 14:25:00,36.9,24.7,30.41,SW,236,9.0,17.0,61,0.01,,---,0.02,357.00,VWS V14.01,2013-11-13 19:25:00,
2013-11-13 14:30:00,36.9,24.7,30.41,SW,236,9.0,17.0,61,0.01,,---,0.02,357.00,VWS V14.01,2013-11-13 19:30:00,
2013-11-13 14:55:00,37.2,25.0,30.39,SW,234,6.0,18.0,61,0.01,,---,0.02,63.00,VWS V14.01,2013-11-13 19:55:00,
2013-11-13 15:00:00,37.2,25.0,30.39,SW,234,6.0,18.0,61,0.01,,---,0.02,63.00,VWS V14.01,2013-11-13 20:00:00,
2013-11-13 15:25:00,38.3,24.4,30.38,West,263,11.0,18.0,57,0.00,,---,0.02,144.00,VWS V14.01,2013-11-13 20:25:00,
2013-11-13 15:30:00,38.3,24.4,30.38,West,263,11.0,18.0,57,0.00,,---,0.02,144.00,VWS V14.01,2013-11-13 20:30:00,
2013-11-13 15:55:00,38.0,24.5,30.37,West,280,16.0,20.0,58,0.00,,---,0.02,67.00,VWS V14.01,2013-11-13 20:55:00,
2013-11-13 16:00:00,38.0,24.5,30.37,West,280,16.0,20.0,58,0.00,,---,0.02,67.00,VWS V14.01,2013-11-13 21:00:00,
2013-11-13 16:25:00,37.3,25.1,30.35,WSW,246,8.0,17.0,61,0.00,,---,0.02,12.00,VWS V14.01,2013-11-13 21:25:00,
2013-11-13 16:30:00,37.3,25.1,30.35,WSW,246,8.0,17.0,61,0.00,,---,0.02,12.00,VWS V14.01,2013-11-13 21:30:00,
2013-11-13 16:55:00,36.5,25.1,30.34,SSW,206,1.0,18.0,63,0.00,,---,0.02,0.00,VWS V14.01,2013-11-13 21:55:00,
2013-11-13 17:00:00,36.5,25.1,30.34,SSW,206,1.0,18.0,63,0.00,,---,0.02,0.00,VWS V14.01,2013-11-13 22:00:00,
2013-11-13 17:25:00,36.1,25.5,30.33,SSW,209,10.0,15.0,65,0.00,,---,0.02,0.00,VWS V14.01,2013-11-13 22:25:00,
2013-11-13 17:30:00,36.1,25.5,30.33,SSW,209,10.0,15.0,65,0.00,,---,0.02,0.00,VWS V14.01,2013-11-13 22:30:00,
2013-11-13 17:55:00,36.1,26.2,30.33,SW,232,6.0,19.0,67,0.00,,---,0.02,0.00,VWS V14.01,2013-11-13 22:55:00,
2013-11-13 18:00:00,36.1,26.2,30.33,SW,232,6.0,19.0,67,0.00,,---,0.02,0.00,VWS V14.01,2013-11-13 23:00:00,
2013-11-13 18:25:00,36.1,25.9,30.32,SSW,198,5.0,21.0,66,0.00,,---,0.02,0.00,VWS V14.01,2013-11-13 23:25:00,
2013-11-13 18:30:00,36.1,25.9,30.32,SSW,198,5.0,21.0,66,0.00,,---,0.02,0.00,VWS V14.01,2013-11-13 23:30:00,
2013-11-13 18:55:00,35.6,25.7,30.32,SW,218,10.0,16.0,67,0.00,,---,0.02,0.00,VWS V14.01,2013-11-13 23:55:00,
2013-11-13 19:00:00,35.6,25.7,30.32,SW,218,10.0,16.0,67,0.00,,---,0.02,0.00,VWS V14.01,2013-11-14 00:00:00,
2013-11-13 19:25:00,35.2,25.0,30.31,SW,225,6.0,18.0,66,0.00,,---,0.02,0.00,VWS V14.01,2013-11-14 00:25:00,
2013-11-13 19:30:00,35.2,25.0,30.31,SW,225,6.0,18.0,66,0.00,,---,0.02,0.00,VWS V14.01,2013-11-14 00:30:00,
2013-11-13 19:55:00,34.7,23.8,30.31,SSW,204,6.0,16.0,64,0.00,,---,0.02,0.00,VWS V14.01,2013-11-14 00:55:00,
2013-11-13 20:00:00,34.7,23.8,30.31,SSW,204,6.0,16.0,64,0.00,,---,0.02,0.00,VWS V14.01,2013-11-14 01:00:00,
2013-11-13 20:25:00,34.3,23.4,30.30,SW,221,6.0,18.0,64,0.00,,---,0.02,0.00,VWS V14.01,2013-11-14 01:25:00,
2013-11-13 20:30:00,34.3,23.4,30.30,SW,221,6.0,18.0,64,0.00,,---,0.02,0.00,VWS V14.01,2013-11-14 01:30:00,
2013-11-13 20:55:00,34.3,22.3,30.27,SSW,213,13.0,19.0,61,0.00,,---,0.02,0.00,VWS V14.01,2013-11-14 01:55:00,
2013-11-13 21:00:00,34.3,22.3,30.27,SSW,213,13.0,19.0,61,0.00,,---,0.02,0.00,VWS V14.01,2013-11-14 02:00:00,
2013-11-13 21:25:00,34.8,22.0,30.25,SSW,208,11.0,21.0,59,0.00,,---,0.02,0.00,VWS V14.01,2013-11-14 02:25:00,
2013-11-13 21:30:00,34.8,22.0,30.25,SSW,208,11.0,21.0,59,0.00,,---,0.02,0.00,VWS V14.01,2013-11-14 02:30:00,
2013-11-13 21:55:00,35.2,20.7,30.22,SW,225,7.0,19.0,55,0.00,,---,0.02,0.00,VWS V14.01,2013-11-14 02:55:00,
2013-11-13 22:00:00,35.2,20.7,30.22,SW,225,7.0,19.0,55,0.00,,---,0.02,0.00,VWS V14.01,2013-11-14 03:00:00,
2013-11-13 22:25:00,35.6,20.2,30.22,WSW,241,7.0,17.0,53,0.00,,---,0.02,0.00,VWS V14.01,2013-11-14 03:25:00,
2013-11-13 22:30:00,35.6,20.2,30.22,WSW,241,7.0,17.0,53,0.00,,---,0.02,0.00,VWS V14.01,2013-11-14 03:30:00,
2013-11-13 22:55:00,35.7,19.4,30.20,SSW,192,6.0,18.0,51,0.00,,---,0.02,0.00,VWS V14.01,2013-11-14 03:55:00,
2013-11-13 23:00:00,35.7,19.4,30.20,SSW,192,6.0,18.0,51,0.00,,---,0.02,0.00,VWS V14.01,2013-11-14 04:00:00,
2013-11-13 23:25:00,35.6,18.8,30.19,WSW,252,10.0,15.0,50,0.00,,---,0.02,0.00,VWS V14.01,2013-11-14 04:25:00,
2013-11-13 23:30:00,35.6,18.8,30.19,WSW,252,10.0,15.0,50,0.00,,---,0.02,0.00,VWS V14.01,2013-11-14 04:30:00,
2013-11-13 23:55:00,35.9,18.1,30.18,SSW,195,4.0,16.0,48,0.00,,---,0.02,0.00,VWS V14.01,2013-11-14 04:55:00,